createdAt,value
2018-06-03T00:00:15.965Z,17.80
2018-06-03T00:02:19.557Z,17.80
2018-06-03T00:04:23.267Z,17.80
2018-06-03T00:06:26.776Z,17.90
2018-06-03T00:08:30.347Z,17.90
2018-06-03T00:10:33.849Z,17.80
2018-06-03T00:14:40.544Z,17.80
2018-06-03T00:16:44.036Z,17.80
2018-06-03T00:18:47.576Z,17.80
2018-06-03T00:21:03.948Z,17.80
2018-06-03T00:23:07.537Z,17.70
2018-06-03T00:25:11.032Z,17.70
2018-06-03T00:27:14.557Z,17.60
2018-06-03T00:29:18.066Z,17.60
2018-06-03T00:31:21.605Z,17.60
2018-06-03T00:33:25.115Z,17.50
2018-06-03T00:35:28.804Z,17.50
2018-06-03T00:37:32.268Z,17.50
2018-06-03T00:39:35.764Z,17.60
2018-06-03T00:41:39.247Z,17.50
2018-06-03T00:43:42.740Z,17.50
2018-06-03T00:45:46.356Z,17.50
2018-06-03T00:47:49.895Z,17.50
2018-06-03T00:49:53.471Z,17.50
2018-06-03T00:54:00.144Z,17.40
2018-06-03T00:56:03.674Z,17.30
2018-06-03T00:58:07.148Z,17.40
2018-06-03T01:00:10.680Z,17.40
2018-06-03T01:02:14.176Z,17.30
2018-06-03T01:04:17.681Z,17.20
2018-06-03T01:06:21.219Z,17.20
2018-06-03T01:08:24.708Z,17.20
2018-06-03T01:10:28.299Z,17.10
2018-06-03T01:12:31.807Z,17.10
2018-06-03T01:14:35.343Z,17.10
2018-06-03T01:16:38.943Z,17.10
2018-06-03T01:18:42.401Z,17.10
2018-06-03T01:20:45.899Z,17.00
2018-06-03T01:22:49.421Z,17.00
2018-06-03T01:24:52.918Z,17.00
2018-06-03T01:26:56.417Z,17.00
2018-06-03T01:29:00.019Z,16.90
2018-06-03T01:31:03.568Z,16.90
2018-06-03T01:33:07.096Z,16.90
2018-06-03T01:35:10.617Z,16.80
2018-06-03T01:37:14.083Z,16.80
2018-06-03T01:39:17.680Z,16.90
2018-06-03T01:41:21.286Z,16.80
2018-06-03T01:43:24.795Z,16.80
2018-06-03T01:45:28.315Z,16.60
2018-06-03T01:47:31.836Z,16.60
2018-06-03T01:49:35.315Z,16.50
2018-06-03T01:51:38.863Z,16.50
2018-06-03T01:53:42.459Z,16.40
2018-06-03T01:55:45.980Z,16.40
2018-06-03T01:57:49.545Z,16.40
2018-06-03T01:59:53.033Z,16.30
2018-06-03T02:01:56.523Z,16.20
2018-06-03T02:04:00.049Z,16.10
2018-06-03T02:06:03.580Z,16.00
2018-06-03T02:08:07.244Z,16.00
2018-06-03T02:10:10.791Z,16.00
2018-06-03T02:12:14.380Z,16.00
2018-06-03T02:14:17.936Z,16.00
2018-06-03T02:16:21.413Z,15.90
2018-06-03T02:18:24.909Z,15.90
2018-06-03T02:20:28.415Z,15.80
2018-06-03T02:22:31.979Z,15.80
2018-06-03T02:24:35.534Z,15.80
2018-06-03T02:26:39.052Z,15.80
2018-06-03T02:28:42.516Z,15.80
2018-06-03T02:30:46.147Z,15.90
2018-06-03T02:32:49.647Z,16.00
2018-06-03T02:34:53.232Z,16.00
2018-06-03T02:36:56.849Z,16.10
2018-06-03T02:39:00.341Z,16.10
2018-06-03T02:41:03.889Z,16.00
2018-06-03T02:43:07.428Z,16.00
2018-06-03T02:45:11.055Z,16.00
2018-06-03T02:47:14.586Z,16.00
2018-06-03T02:49:18.060Z,16.00
2018-06-03T02:51:21.553Z,15.90
2018-06-03T02:53:25.083Z,15.80
2018-06-03T02:55:28.557Z,15.90
2018-06-03T02:57:32.157Z,15.90
2018-06-03T02:59:35.637Z,15.90
2018-06-03T03:01:39.270Z,15.90
2018-06-03T03:03:42.790Z,15.90
2018-06-03T03:05:46.260Z,15.90
2018-06-03T03:07:49.863Z,15.80
2018-06-03T03:09:53.367Z,15.80
2018-06-03T03:11:56.867Z,15.80
2018-06-03T03:14:00.465Z,15.80
2018-06-03T03:16:03.949Z,15.70
2018-06-03T03:18:07.505Z,15.70
2018-06-03T03:20:11.013Z,15.70
2018-06-03T03:22:14.505Z,15.70
2018-06-03T03:24:17.991Z,15.60
2018-06-03T03:26:21.548Z,15.60
2018-06-03T03:28:25.380Z,15.70
2018-06-03T03:30:28.859Z,15.70
2018-06-03T03:32:32.384Z,15.60
2018-06-03T03:34:36.004Z,15.60
2018-06-03T03:36:39.473Z,15.50
2018-06-03T03:38:42.965Z,15.60
2018-06-03T03:40:46.440Z,15.60
2018-06-03T03:42:49.970Z,15.60
2018-06-03T03:44:53.471Z,15.60
2018-06-03T03:46:56.962Z,15.60
2018-06-03T03:49:00.469Z,15.70
2018-06-03T03:51:03.998Z,15.70
2018-06-03T03:53:07.583Z,15.70
2018-06-03T03:55:11.114Z,15.80
2018-06-03T03:57:14.715Z,15.70
2018-06-03T04:01:21.437Z,15.70
2018-06-03T04:03:24.903Z,15.70
2018-06-03T04:05:28.843Z,15.60
2018-06-03T04:07:32.425Z,15.60
2018-06-03T04:09:35.938Z,15.60
2018-06-03T04:11:39.427Z,15.50
2018-06-03T04:13:42.908Z,15.50
2018-06-03T04:15:46.447Z,15.50
2018-06-03T04:17:49.953Z,15.40
2018-06-03T04:19:53.427Z,15.40
2018-06-03T04:21:56.915Z,15.40
2018-06-03T04:24:00.452Z,15.40
2018-06-03T04:26:03.946Z,15.50
2018-06-03T04:28:07.456Z,15.40
2018-06-03T04:30:10.949Z,15.40
2018-06-03T04:32:14.431Z,15.40
2018-06-03T04:34:17.917Z,15.40
2018-06-03T04:36:21.399Z,15.40
2018-06-03T04:38:24.894Z,15.40
2018-06-03T04:40:28.405Z,15.30
2018-06-03T04:42:31.895Z,15.30
2018-06-03T04:44:35.347Z,15.30
2018-06-03T04:46:38.980Z,15.30
2018-06-03T04:48:42.574Z,15.30
2018-06-03T04:50:46.084Z,15.40
2018-06-03T04:52:49.725Z,15.50
2018-06-03T04:54:53.225Z,15.50
2018-06-03T04:56:56.808Z,15.60
2018-06-03T04:59:00.387Z,15.70
2018-06-03T05:03:07.328Z,16.00
2018-06-03T05:05:10.856Z,16.00
2018-06-03T05:07:14.376Z,16.20
2018-06-03T05:09:17.884Z,16.20
2018-06-03T05:11:21.378Z,16.30
2018-06-03T05:13:24.983Z,16.30
2018-06-03T05:15:28.516Z,16.40
2018-06-03T05:17:32.003Z,16.50
2018-06-03T05:19:35.607Z,16.60
2018-06-03T05:21:39.052Z,16.70
2018-06-03T05:23:42.565Z,16.70
2018-06-03T05:25:46.147Z,16.80
2018-06-03T05:27:49.719Z,16.90
2018-06-03T05:29:53.222Z,16.90
2018-06-03T05:31:56.699Z,17.00
2018-06-03T05:34:00.356Z,17.00
2018-06-03T05:36:03.852Z,17.10
2018-06-03T05:38:07.334Z,17.10
2018-06-03T05:40:10.819Z,17.20
2018-06-03T05:42:14.485Z,17.30
2018-06-03T05:44:17.996Z,17.30
2018-06-03T05:46:21.487Z,17.40
2018-06-03T05:50:28.599Z,17.60
2018-06-03T05:52:32.162Z,17.70
2018-06-03T05:54:35.649Z,17.80
2018-06-03T05:56:39.118Z,17.90
2018-06-03T05:58:42.614Z,18.00
2018-06-03T06:00:46.114Z,18.20
2018-06-03T06:02:49.620Z,18.30
2018-06-03T06:04:53.099Z,18.40
2018-06-03T06:06:56.590Z,18.40
2018-06-03T06:09:00.303Z,18.60
2018-06-03T06:11:03.792Z,18.70
2018-06-03T06:13:07.316Z,18.80
2018-06-03T06:15:10.855Z,18.80
2018-06-03T06:17:14.696Z,18.90
2018-06-03T06:19:18.193Z,18.90
2018-06-03T06:21:21.792Z,19.00
2018-06-03T06:23:25.284Z,19.10
2018-06-03T06:25:28.862Z,19.10
2018-06-03T06:27:32.380Z,19.10
2018-06-03T06:29:35.892Z,19.30
2018-06-03T06:31:39.398Z,19.40
2018-06-03T06:33:43.023Z,19.50
2018-06-03T06:35:46.624Z,19.50
2018-06-03T06:37:50.124Z,19.60
2018-06-03T06:39:53.647Z,19.70
2018-06-03T06:41:57.320Z,19.80
2018-06-03T06:44:00.828Z,19.90
2018-06-03T06:46:04.367Z,20.00
2018-06-03T06:48:07.863Z,20.00
2018-06-03T06:50:11.349Z,20.00
2018-06-03T06:52:14.904Z,20.10
2018-06-03T06:54:18.463Z,20.20
2018-06-03T06:56:21.939Z,20.40
2018-06-03T06:58:25.448Z,20.50
2018-06-03T07:00:28.970Z,20.60
2018-06-03T07:02:32.577Z,20.70
2018-06-03T07:04:36.100Z,20.80
2018-06-03T07:06:39.678Z,20.90
2018-06-03T07:08:43.191Z,20.80
2018-06-03T07:10:46.731Z,20.80
2018-06-03T07:12:50.274Z,20.80
2018-06-03T07:14:53.823Z,20.80
2018-06-03T07:16:57.391Z,20.80
2018-06-03T07:19:00.940Z,20.90
2018-06-03T07:21:04.447Z,20.90
2018-06-03T07:23:07.979Z,21.10
2018-06-03T07:25:11.497Z,21.10
2018-06-03T07:27:14.987Z,21.10
2018-06-03T07:29:18.500Z,21.10
2018-06-03T07:31:22.000Z,21.10
2018-06-03T07:35:29.072Z,21.10
2018-06-03T07:37:36.331Z,21.10
2018-06-03T07:39:39.872Z,21.10
2018-06-03T07:43:46.644Z,21.00
2018-06-03T07:45:50.164Z,21.00
2018-06-03T07:49:56.818Z,21.10
2018-06-03T07:52:00.378Z,21.20
2018-06-03T07:54:07.137Z,21.20
2018-06-03T07:56:10.721Z,21.40
2018-06-03T07:58:14.201Z,21.50
2018-06-03T08:00:21.857Z,21.60
2018-06-03T08:02:25.420Z,21.80
2018-06-03T08:04:28.952Z,21.90
2018-06-03T08:06:32.476Z,21.90
2018-06-03T08:08:36.402Z,21.90
2018-06-03T08:10:39.916Z,21.80
2018-06-03T08:12:43.430Z,21.80
2018-06-03T08:14:47.138Z,21.70
2018-06-03T08:16:50.660Z,21.70
2018-06-03T08:18:54.268Z,21.70
2018-06-03T08:20:57.739Z,21.70
2018-06-03T08:23:01.263Z,21.90
2018-06-03T08:27:07.893Z,22.00
2018-06-03T08:29:11.490Z,22.00
2018-06-03T08:31:15.058Z,22.00
2018-06-03T08:33:18.607Z,22.00
2018-06-03T08:35:22.117Z,22.10
2018-06-03T08:37:25.612Z,22.20
2018-06-03T08:39:29.124Z,22.00
2018-06-03T08:43:36.683Z,22.00
2018-06-03T08:45:42.336Z,22.10
2018-06-03T08:47:47.959Z,22.20
2018-06-03T08:49:51.760Z,22.20
2018-06-03T08:51:57.972Z,22.30
2018-06-03T08:54:01.538Z,22.70
2018-06-03T08:56:05.117Z,22.70
2018-06-03T08:58:08.597Z,22.70
2018-06-03T09:00:12.114Z,22.70
2018-06-03T09:02:15.630Z,22.90
2018-06-03T09:04:19.192Z,22.90
2018-06-03T09:06:22.675Z,22.70
2018-06-03T09:08:26.171Z,22.70
2018-06-03T09:10:29.737Z,22.70
2018-06-03T09:12:33.304Z,22.70
2018-06-03T09:14:36.813Z,22.70
2018-06-03T09:16:40.395Z,22.80
2018-06-03T09:18:43.885Z,22.80
2018-06-03T09:20:47.376Z,22.90
2018-06-03T09:22:50.899Z,23.00
2018-06-03T09:24:54.487Z,23.10
2018-06-03T09:26:58.003Z,23.30
2018-06-03T09:29:01.603Z,23.30
2018-06-03T09:31:07.310Z,23.30
2018-06-03T09:33:10.835Z,23.20
2018-06-03T09:35:14.411Z,23.10
2018-06-03T09:37:18.055Z,23.00
2018-06-03T09:39:21.608Z,23.00
2018-06-03T09:41:25.091Z,23.00
2018-06-03T09:43:28.651Z,23.00
2018-06-03T09:45:32.168Z,23.00
2018-06-03T09:47:35.715Z,23.10
2018-06-03T09:49:39.228Z,23.20
2018-06-03T09:51:42.841Z,23.10
2018-06-03T09:53:46.313Z,23.00
2018-06-03T09:55:49.851Z,23.00
2018-06-03T09:57:53.322Z,23.10
2018-06-03T09:59:56.848Z,23.20
2018-06-03T10:02:00.355Z,23.30
2018-06-03T10:04:03.882Z,23.40
2018-06-03T10:08:10.650Z,23.50
2018-06-03T10:10:14.318Z,23.70
2018-06-03T10:12:17.847Z,23.60
2018-06-03T10:14:21.348Z,23.60
2018-06-03T10:16:24.916Z,23.50
2018-06-03T10:18:28.460Z,23.50
2018-06-03T10:20:32.077Z,23.40
2018-06-03T10:22:35.557Z,23.40
2018-06-03T10:26:42.448Z,23.20
2018-06-03T10:28:45.975Z,23.10
2018-06-03T10:30:49.472Z,23.20
2018-06-03T10:32:52.991Z,23.20
2018-06-03T10:34:56.491Z,23.40
2018-06-03T10:36:59.988Z,23.40
2018-06-03T10:39:03.729Z,23.60
2018-06-03T10:41:08.045Z,23.80
2018-06-03T10:43:11.549Z,23.80
2018-06-03T10:45:15.200Z,24.00
2018-06-03T10:47:18.687Z,23.90
2018-06-03T10:49:22.188Z,23.90
2018-06-03T10:51:25.742Z,23.80
2018-06-03T10:53:29.307Z,23.90
2018-06-03T10:55:32.848Z,24.10
2018-06-03T10:57:36.437Z,24.20
2018-06-03T10:59:39.936Z,24.20
2018-06-03T11:01:43.457Z,24.20
2018-06-03T11:03:46.930Z,24.20
2018-06-03T11:05:50.553Z,24.20
2018-06-03T11:07:54.088Z,24.20
2018-06-03T11:09:57.596Z,24.20
2018-06-03T11:12:01.115Z,24.30
2018-06-03T11:14:04.660Z,24.20
2018-06-03T11:16:08.221Z,24.20
2018-06-03T11:18:11.743Z,24.10
2018-06-03T11:20:15.787Z,24.20
2018-06-03T11:22:19.428Z,24.10
2018-06-03T11:24:22.912Z,24.00
2018-06-03T11:26:26.450Z,24.10
2018-06-03T11:28:29.982Z,24.10
2018-06-03T11:30:33.515Z,24.30
2018-06-03T11:32:37.024Z,24.40
2018-06-03T11:34:40.578Z,24.50
2018-06-03T11:36:44.099Z,24.60
2018-06-03T11:38:47.615Z,24.70
2018-06-03T11:40:51.192Z,24.80
2018-06-03T11:42:54.723Z,24.70
2018-06-03T11:44:58.213Z,24.80
2018-06-03T11:47:01.717Z,25.00
2018-06-03T11:49:05.273Z,25.10
2018-06-03T11:51:08.856Z,25.20
2018-06-03T11:53:12.454Z,25.20
2018-06-03T11:55:16.056Z,25.20
2018-06-03T11:57:19.651Z,25.40
2018-06-03T11:59:34.273Z,25.60
2018-06-03T12:01:37.818Z,25.70
2018-06-03T12:03:41.356Z,25.20
2018-06-03T12:05:44.908Z,25.20
2018-06-03T12:07:48.404Z,25.20
2018-06-03T12:09:52.009Z,25.40
2018-06-03T12:11:55.515Z,25.60
2018-06-03T12:13:58.995Z,25.80
2018-06-03T12:16:02.533Z,25.80
2018-06-03T12:18:06.051Z,25.50
2018-06-03T12:20:09.564Z,25.60
2018-06-03T12:22:13.118Z,25.80
2018-06-03T12:26:19.925Z,26.00
2018-06-03T12:28:23.484Z,26.00
2018-06-03T12:30:27.001Z,25.90
2018-06-03T12:32:30.596Z,25.90
2018-06-03T12:34:34.124Z,26.00
2018-06-03T12:36:37.652Z,26.00
2018-06-03T12:38:41.187Z,25.70
2018-06-03T12:40:44.676Z,25.70
2018-06-03T12:42:48.237Z,25.60
2018-06-03T12:44:51.790Z,25.70
2018-06-03T12:46:55.305Z,25.60
2018-06-03T12:48:58.844Z,25.50
2018-06-03T12:51:02.359Z,25.60
2018-06-03T12:53:06.153Z,25.50
2018-06-03T12:55:09.711Z,25.50
2018-06-03T12:57:13.239Z,25.30
2018-06-03T12:59:16.771Z,25.30
2018-06-03T13:01:20.291Z,25.30
2018-06-03T13:03:23.955Z,25.40
2018-06-03T13:05:27.474Z,25.50
2018-06-03T13:07:30.998Z,25.60
2018-06-03T13:09:34.495Z,25.60
2018-06-03T13:11:38.039Z,25.40
2018-06-03T13:13:41.677Z,25.40
2018-06-03T13:15:45.202Z,25.30
2018-06-03T13:17:48.774Z,25.30
2018-06-03T13:19:52.268Z,25.30
2018-06-03T13:21:55.844Z,25.30
2018-06-03T13:23:59.337Z,25.30
2018-06-03T13:26:02.863Z,25.40
2018-06-03T13:28:06.369Z,25.50
2018-06-03T13:30:09.864Z,25.50
2018-06-03T13:32:13.387Z,25.60
2018-06-03T13:36:20.033Z,25.60
2018-06-03T13:38:23.569Z,25.60
2018-06-03T13:40:27.132Z,25.60
2018-06-03T13:42:30.664Z,25.70
2018-06-03T13:44:34.220Z,25.80
2018-06-03T13:46:37.767Z,25.80
2018-06-03T13:48:41.259Z,25.70
2018-06-03T13:50:44.774Z,25.80
2018-06-03T13:52:48.380Z,26.00
2018-06-03T13:54:51.861Z,26.10
2018-06-03T13:56:55.437Z,26.00
2018-06-03T13:58:58.972Z,25.90
2018-06-03T14:01:02.586Z,26.00
2018-06-03T14:03:06.089Z,26.00
2018-06-03T14:05:09.592Z,26.10
2018-06-03T14:07:13.193Z,26.00
2018-06-03T14:09:16.812Z,25.90
2018-06-03T14:11:20.303Z,25.90
2018-06-03T14:13:23.800Z,26.00
2018-06-03T14:15:27.304Z,26.00
2018-06-03T14:17:30.835Z,26.00
2018-06-03T14:19:34.356Z,26.00
2018-06-03T14:21:37.855Z,26.10
2018-06-03T14:23:41.356Z,26.10
2018-06-03T14:25:44.863Z,26.10
2018-06-03T14:29:51.954Z,26.20
2018-06-03T14:31:55.432Z,26.20
2018-06-03T14:33:58.963Z,26.20
2018-06-03T14:36:02.460Z,26.20
2018-06-03T14:38:05.976Z,26.40
2018-06-03T14:40:09.552Z,26.40
2018-06-03T14:42:13.074Z,26.30
2018-06-03T14:44:16.574Z,26.30
2018-06-03T14:46:20.136Z,26.40
2018-06-03T14:48:23.699Z,26.30
2018-06-03T14:50:27.244Z,26.30
2018-06-03T14:52:30.747Z,26.30
2018-06-03T14:54:34.248Z,26.30
2018-06-03T14:56:37.898Z,26.30
2018-06-03T14:58:41.395Z,26.50
2018-06-03T15:00:44.891Z,26.60
2018-06-03T15:02:48.375Z,26.60
2018-06-03T15:04:51.884Z,26.70
2018-06-03T15:06:55.394Z,26.80
2018-06-03T15:08:59.210Z,26.70
2018-06-03T15:11:02.722Z,26.60
2018-06-03T15:13:06.324Z,26.60
2018-06-03T15:15:09.804Z,26.60
2018-06-03T15:17:13.353Z,26.60
2018-06-03T15:19:17.039Z,26.70
2018-06-03T15:25:27.049Z,26.60
2018-06-03T15:27:30.577Z,26.70
2018-06-03T15:29:34.116Z,26.80
2018-06-03T15:31:37.628Z,26.90
2018-06-03T15:33:41.246Z,26.90
2018-06-03T15:35:45.415Z,26.80
2018-06-03T15:37:49.020Z,26.60
2018-06-03T15:39:52.530Z,26.60
2018-06-03T15:42:01.176Z,26.70
2018-06-03T15:46:07.914Z,27.00
2018-06-03T15:48:11.461Z,27.20
2018-06-03T15:50:14.968Z,27.30
2018-06-03T15:52:18.478Z,27.30
2018-06-03T15:54:22.111Z,27.30
2018-06-03T15:56:25.648Z,27.10
2018-06-03T15:58:29.166Z,27.10
2018-06-03T16:00:32.672Z,26.90
2018-06-03T16:02:36.166Z,26.80
2018-06-03T16:04:39.837Z,26.80
2018-06-03T16:06:43.405Z,26.70
2018-06-03T16:08:46.945Z,26.90
2018-06-03T16:10:50.459Z,26.80
2018-06-03T16:12:54.051Z,27.30
2018-06-03T16:14:57.570Z,27.60
2018-06-03T16:17:01.110Z,28.00
2018-06-03T16:19:04.827Z,28.10
2018-06-03T16:21:08.485Z,28.10
2018-06-03T16:23:11.982Z,28.00
2018-06-03T16:25:15.487Z,27.80
2018-06-03T16:27:19.041Z,27.80
2018-06-03T16:29:22.618Z,27.80
2018-06-03T16:31:26.173Z,27.60
2018-06-03T16:33:29.733Z,27.50
2018-06-03T16:35:33.257Z,27.60
2018-06-03T16:37:37.007Z,27.70
2018-06-03T16:39:40.517Z,28.00
2018-06-03T16:41:44.173Z,28.00
2018-06-03T16:43:47.752Z,27.90
2018-06-03T16:45:51.243Z,27.50
2018-06-03T16:47:54.723Z,27.40
2018-06-03T16:49:58.244Z,27.10
2018-06-03T16:52:01.982Z,26.80
2018-06-03T16:54:08.790Z,26.70
2018-06-03T16:56:12.299Z,26.60
2018-06-03T16:58:15.838Z,26.40
2018-06-03T17:00:19.356Z,26.20
2018-06-03T17:02:22.896Z,26.10
2018-06-03T17:06:32.049Z,26.00
2018-06-03T17:08:35.576Z,26.00
2018-06-03T17:10:39.204Z,26.00
2018-06-03T17:12:42.741Z,25.90
2018-06-03T17:14:46.434Z,26.00
2018-06-03T17:16:49.901Z,26.00
2018-06-03T17:18:53.512Z,25.90
2018-06-03T17:20:57.126Z,25.80
2018-06-03T17:23:00.620Z,25.90
2018-06-03T17:27:07.485Z,25.60
2018-06-03T17:29:11.034Z,25.60
2018-06-03T17:31:14.572Z,25.50
2018-06-03T17:33:18.195Z,25.40
2018-06-03T17:35:24.027Z,25.30
2018-06-03T17:37:30.424Z,25.30
2018-06-03T17:39:34.943Z,25.30
2018-06-03T17:41:38.432Z,25.20
2018-06-03T17:43:41.947Z,25.10
2018-06-03T17:45:45.468Z,25.10
2018-06-03T17:47:48.970Z,25.00
2018-06-03T17:49:52.659Z,25.00
2018-06-03T17:51:56.147Z,24.90
2018-06-03T17:53:59.684Z,24.90
2018-06-03T17:56:03.191Z,24.90
2018-06-03T17:58:06.684Z,24.90
2018-06-03T18:00:10.272Z,24.90
2018-06-03T18:02:13.800Z,24.90
2018-06-03T18:04:17.367Z,24.90
2018-06-03T18:06:21.036Z,24.80
2018-06-03T18:08:24.580Z,24.80
2018-06-03T18:12:31.281Z,24.80
2018-06-03T18:14:34.784Z,24.70
2018-06-03T18:16:38.325Z,24.60
2018-06-03T18:18:41.856Z,24.60
2018-06-03T18:20:45.424Z,24.60
2018-06-03T18:22:48.905Z,24.50
2018-06-03T18:24:52.423Z,24.50
2018-06-03T18:26:55.937Z,24.50
2018-06-03T18:28:59.420Z,24.40
2018-06-03T18:33:06.159Z,24.30
2018-06-03T18:35:09.812Z,24.30
2018-06-03T18:37:13.325Z,24.20
2018-06-03T18:39:16.893Z,24.10
2018-06-03T18:41:20.420Z,24.00
2018-06-03T18:43:23.931Z,24.00
2018-06-03T18:45:27.459Z,24.00
2018-06-03T18:47:30.986Z,24.00
2018-06-03T18:51:37.697Z,23.80
2018-06-03T18:53:41.256Z,23.80
2018-06-03T18:55:44.788Z,23.70
2018-06-03T18:57:48.348Z,23.60
2018-06-03T18:59:51.921Z,23.50
2018-06-03T19:01:55.436Z,23.40
2018-06-03T19:03:58.965Z,23.30
2018-06-03T19:06:02.496Z,23.20
2018-06-03T19:08:06.145Z,23.10
2018-06-03T19:10:09.696Z,23.10
2018-06-03T19:12:13.304Z,23.00
2018-06-03T19:14:16.831Z,22.70
2018-06-03T19:16:20.653Z,22.40
2018-06-03T19:18:24.146Z,22.20
2018-06-03T19:20:27.666Z,22.10
2018-06-03T19:22:31.139Z,22.00
2018-06-03T19:24:34.655Z,22.00
2018-06-03T19:26:38.227Z,22.00
2018-06-03T19:28:41.796Z,21.90
2018-06-03T19:30:45.392Z,21.90
2018-06-03T19:32:48.914Z,21.90
2018-06-03T19:34:52.484Z,21.80
2018-06-03T19:36:56.008Z,21.70
2018-06-03T19:38:59.583Z,21.70
2018-06-03T19:41:03.111Z,21.70
2018-06-03T19:43:06.636Z,21.60
2018-06-03T19:45:10.184Z,21.50
2018-06-03T19:47:13.697Z,21.40
2018-06-03T19:49:17.200Z,21.40
2018-06-03T19:51:20.748Z,21.40
2018-06-03T19:53:24.217Z,21.40
2018-06-03T19:55:27.867Z,21.30
2018-06-03T19:57:31.408Z,21.30
2018-06-03T19:59:34.943Z,21.30
2018-06-03T20:01:38.442Z,21.20
2018-06-03T20:03:42.106Z,21.10
2018-06-03T20:05:45.596Z,21.00
2018-06-03T20:07:49.138Z,20.90
2018-06-03T20:09:52.750Z,20.90
2018-06-03T20:14:31.403Z,20.80
2018-06-03T20:16:35.053Z,20.80
2018-06-03T20:18:38.655Z,20.80
2018-06-03T20:22:45.676Z,20.70
2018-06-03T20:24:51.724Z,20.70
2018-06-03T20:26:55.401Z,20.70
2018-06-03T20:28:59.096Z,20.70
2018-06-03T20:31:02.883Z,20.70
2018-06-03T20:33:06.567Z,20.70
2018-06-03T20:35:10.151Z,20.70
2018-06-03T20:37:13.749Z,20.60
2018-06-03T20:39:17.347Z,20.60
2018-06-03T20:41:21.226Z,20.50
2018-06-03T20:43:24.931Z,20.50
2018-06-03T20:45:28.545Z,20.40
2018-06-03T20:49:35.550Z,20.30
2018-06-03T20:51:39.155Z,20.30
2018-06-03T20:53:42.909Z,20.30
2018-06-03T20:55:46.673Z,20.20
2018-06-03T20:57:50.363Z,20.20
2018-06-03T20:59:53.998Z,20.20
2018-06-03T21:01:57.607Z,20.10
2018-06-03T21:04:02.726Z,20.20
2018-06-03T21:06:06.377Z,20.00
2018-06-03T21:08:10.075Z,20.10
2018-06-03T21:10:14.081Z,20.10
2018-06-03T21:12:17.803Z,20.10
2018-06-03T21:14:21.453Z,20.00
2018-06-03T21:16:25.160Z,20.00
2018-06-03T21:18:28.771Z,19.90
2018-06-03T21:22:35.734Z,19.70
2018-06-03T21:24:39.343Z,19.70
2018-06-03T21:26:42.940Z,19.70
2018-06-03T21:28:46.661Z,19.60
2018-06-03T21:30:50.277Z,19.60
2018-06-03T21:32:53.965Z,19.60
2018-06-03T21:34:57.606Z,19.50
2018-06-03T21:37:01.377Z,19.40
2018-06-03T21:39:07.658Z,19.40
2018-06-03T21:41:11.308Z,19.30
2018-06-03T21:43:14.929Z,19.30
2018-06-03T21:45:18.661Z,19.20
2018-06-03T21:47:22.284Z,19.20
2018-06-03T21:49:25.851Z,19.30
2018-06-03T21:51:29.468Z,19.20
2018-06-03T21:53:33.132Z,19.20
2018-06-03T21:55:36.728Z,19.10
2018-06-03T21:57:40.397Z,19.10
2018-06-03T22:01:47.402Z,19.10
2018-06-03T22:03:51.108Z,19.10
2018-06-03T22:05:54.774Z,19.00
2018-06-03T22:07:58.578Z,19.00
2018-06-03T22:10:02.273Z,19.00
2018-06-03T22:12:06.140Z,19.00
2018-06-03T22:14:09.932Z,19.00
2018-06-03T22:16:14.613Z,19.00
2018-06-03T22:18:18.287Z,18.90
2018-06-03T22:20:21.934Z,19.00
2018-06-03T22:22:25.521Z,18.90
2018-06-03T22:24:29.167Z,19.00
2018-06-03T22:26:32.777Z,19.00
2018-06-03T22:28:36.537Z,18.90
2018-06-03T22:30:40.226Z,18.90
2018-06-03T22:32:43.889Z,18.90
2018-06-03T22:34:47.583Z,18.80
2018-06-03T22:36:51.301Z,18.70
2018-06-03T22:38:54.949Z,18.60
2018-06-03T22:40:58.508Z,18.60
2018-06-03T22:43:02.244Z,18.60
2018-06-03T22:45:05.906Z,18.60
2018-06-03T22:47:09.698Z,18.60
2018-06-03T22:49:13.272Z,18.50
2018-06-03T22:51:16.973Z,18.50
2018-06-03T22:53:20.605Z,18.40
2018-06-03T22:55:24.248Z,18.20
2018-06-03T22:57:45.431Z,18.10
2018-06-03T22:59:49.096Z,18.10
2018-06-03T23:01:52.693Z,18.10
2018-06-03T23:03:56.330Z,18.20
2018-06-03T23:08:03.293Z,18.30
2018-06-03T23:10:07.068Z,18.30
2018-06-03T23:12:10.708Z,18.40
2018-06-03T23:14:14.292Z,18.40
2018-06-03T23:16:17.859Z,18.30
2018-06-03T23:18:21.618Z,18.30
2018-06-03T23:20:25.276Z,18.30
2018-06-03T23:22:28.912Z,18.30
2018-06-03T23:24:32.534Z,18.30
2018-06-03T23:26:36.136Z,18.20
2018-06-03T23:28:39.756Z,18.10
2018-06-03T23:30:43.477Z,18.00
2018-06-03T23:32:47.095Z,17.90
2018-06-03T23:34:50.837Z,17.80
2018-06-03T23:36:54.445Z,17.80
2018-06-03T23:38:58.061Z,17.80
2018-06-03T23:41:01.616Z,17.80
2018-06-03T23:43:05.412Z,17.70
2018-06-03T23:47:12.244Z,17.60
2018-06-03T23:49:15.922Z,17.60
2018-06-03T23:51:19.467Z,17.60
2018-06-03T23:53:23.133Z,17.50
2018-06-03T23:55:26.691Z,17.50
2018-06-03T23:57:30.416Z,17.40
2018-06-03T23:59:34.069Z,17.30
